createdAt,value
2019-04-26T00:01:03.972Z,88.50
2019-04-26T00:03:32.695Z,88.60
2019-04-26T00:05:59.206Z,88.90
2019-04-26T00:08:25.982Z,89.20
2019-04-26T00:11:09.644Z,88.20
2019-04-26T00:13:41.818Z,87.30
2019-04-26T00:16:28.610Z,88.00
2019-04-26T00:18:55.236Z,88.60
2019-04-26T00:21:22.458Z,88.90
2019-04-26T00:23:49.228Z,89.10
2019-04-26T00:26:15.938Z,88.40
2019-04-26T00:28:42.420Z,88.60
2019-04-26T00:31:09.014Z,88.60
2019-04-26T00:33:35.783Z,89.60
2019-04-26T00:36:02.102Z,89.90
2019-04-26T00:38:28.556Z,89.90
2019-04-26T00:40:56.192Z,90.10
2019-04-26T00:43:24.027Z,90.00
2019-04-26T00:45:52.242Z,89.80
2019-04-26T00:48:23.060Z,89.90
2019-04-26T00:50:51.442Z,89.60
2019-04-26T00:53:19.653Z,89.50
2019-04-26T00:55:47.578Z,90.10
2019-04-26T00:58:15.259Z,89.80
2019-04-26T01:00:42.809Z,89.50
2019-04-26T01:03:09.079Z,89.70
2019-04-26T01:05:36.931Z,89.80
2019-04-26T01:08:03.146Z,89.90
2019-04-26T01:10:29.542Z,89.70
2019-04-26T01:12:55.798Z,89.60
2019-04-26T01:15:23.285Z,90.10
2019-04-26T01:17:50.722Z,90.20
2019-04-26T01:20:20.400Z,90.30
2019-04-26T01:22:53.955Z,90.30
2019-04-26T01:25:33.070Z,90.20
2019-04-26T01:28:00.399Z,90.30
2019-04-26T01:30:30.663Z,90.60
2019-04-26T01:32:57.110Z,90.70
2019-04-26T01:35:24.199Z,90.50
2019-04-26T01:37:51.886Z,90.40
2019-04-26T01:40:21.080Z,90.50
2019-04-26T01:42:53.366Z,90.70
2019-04-26T01:45:27.867Z,90.60
2019-04-26T01:47:58.159Z,90.00
2019-04-26T01:50:27.399Z,90.00
2019-04-26T01:52:55.980Z,90.20
2019-04-26T01:55:24.990Z,90.50
2019-04-26T01:57:52.428Z,90.00
2019-04-26T02:00:38.573Z,90.00
2019-04-26T02:03:13.304Z,90.00
2019-04-26T02:05:39.529Z,90.10
2019-04-26T02:08:05.931Z,90.30
2019-04-26T02:10:32.785Z,90.70
2019-04-26T02:12:59.705Z,90.70
2019-04-26T02:15:29.302Z,90.70
2019-04-26T02:17:57.959Z,90.60
2019-04-26T02:20:54.079Z,90.50
2019-04-26T02:23:32.109Z,90.60
2019-04-26T02:26:00.951Z,90.50
2019-04-26T02:28:28.277Z,90.60
2019-04-26T02:30:54.852Z,90.70
2019-04-26T02:33:21.962Z,90.70
2019-04-26T02:35:48.439Z,90.80
2019-04-26T02:38:15.039Z,91.00
2019-04-26T02:40:41.909Z,90.70
2019-04-26T02:43:08.436Z,90.70
2019-04-26T02:45:49.357Z,90.60
2019-04-26T02:48:32.184Z,90.40
2019-04-26T02:51:14.742Z,90.50
2019-04-26T02:53:53.670Z,90.60
2019-04-26T02:56:41.742Z,90.90
2019-04-26T02:59:11.830Z,90.80
2019-04-26T03:01:40.010Z,90.90
2019-04-26T03:04:06.870Z,90.60
2019-04-26T03:06:34.926Z,90.50
2019-04-26T03:09:06.594Z,90.80
2019-04-26T03:11:37.103Z,90.60
2019-04-26T03:14:09.268Z,90.70
2019-04-26T03:16:50.440Z,90.80
2019-04-26T03:19:22.510Z,90.50
2019-04-26T03:22:07.600Z,90.50
2019-04-26T03:24:42.465Z,90.60
2019-04-26T03:27:24.687Z,91.30
2019-04-26T03:30:22.124Z,91.30
2019-04-26T03:32:50.790Z,91.20
2019-04-26T03:35:41.133Z,91.30
2019-04-26T03:38:20.248Z,91.30
2019-04-26T03:41:09.837Z,91.30
2019-04-26T03:43:56.678Z,91.40
2019-04-26T03:46:35.107Z,91.40
2019-04-26T03:49:18.357Z,91.40
2019-04-26T03:52:11.442Z,91.70
2019-04-26T03:54:41.053Z,91.30
2019-04-26T03:57:22.150Z,91.20
2019-04-26T04:00:00.317Z,91.20
2019-04-26T04:02:32.443Z,91.40
2019-04-26T04:05:28.997Z,91.60
2019-04-26T04:07:58.729Z,91.40
2019-04-26T04:10:41.963Z,91.20
2019-04-26T04:13:17.231Z,91.20
2019-04-26T04:15:48.484Z,91.10
2019-04-26T04:18:27.750Z,91.20
2019-04-26T04:21:28.624Z,91.30
2019-04-26T04:24:01.855Z,91.00
2019-04-26T04:26:41.659Z,90.60
2019-04-26T04:29:40.075Z,90.40
2019-04-26T04:31:59.629Z,90.40
2019-04-26T04:34:44.011Z,90.50
2019-04-26T04:37:16.339Z,90.80
2019-04-26T04:39:53.545Z,90.60
2019-04-26T04:42:48.099Z,90.90
2019-04-26T04:45:32.875Z,90.70
2019-04-26T04:48:31.843Z,90.70
2019-04-26T04:51:35.173Z,90.80
2019-04-26T04:54:20.232Z,90.60
2019-04-26T04:57:08.406Z,90.60
2019-04-26T04:59:59.745Z,90.40
2019-04-26T05:02:46.668Z,90.60
2019-04-26T05:06:07.354Z,90.60
2019-04-26T05:08:51.579Z,90.50
2019-04-26T05:11:28.331Z,90.70
2019-04-26T05:14:15.230Z,90.70
2019-04-26T05:17:03.646Z,90.50
2019-04-26T05:19:42.663Z,90.20
2019-04-26T05:22:39.907Z,90.20
2019-04-26T05:25:40.314Z,90.60
2019-04-26T05:28:17.759Z,90.80
2019-04-26T05:31:13.775Z,90.20
2019-04-26T05:33:47.752Z,90.10
2019-04-26T05:36:34.046Z,89.90
2019-04-26T05:39:09.840Z,89.00
2019-04-26T05:42:10.837Z,88.30
2019-04-26T05:45:20.970Z,88.30
2019-04-26T05:48:12.920Z,87.70
2019-04-26T05:51:06.341Z,87.50
2019-04-26T05:54:02.501Z,87.60
2019-04-26T05:56:54.290Z,87.40
2019-04-26T05:59:27.720Z,87.30
2019-04-26T06:02:23.918Z,86.10
2019-04-26T06:05:14.147Z,86.10
2019-04-26T06:08:08.806Z,86.20
2019-04-26T06:10:43.739Z,85.40
2019-04-26T06:13:49.010Z,84.90
2019-04-26T06:16:37.776Z,83.90
2019-04-26T06:19:43.424Z,82.60
2019-04-26T06:22:42.418Z,82.40
2019-04-26T06:25:35.517Z,81.80
2019-04-26T06:28:28.294Z,81.30
2019-04-26T06:31:13.318Z,81.30
2019-04-26T06:34:01.331Z,76.20
2019-04-26T06:36:33.287Z,70.20
2019-04-26T06:39:14.139Z,64.10
2019-04-26T06:42:08.293Z,62.50
2019-04-26T06:45:16.377Z,61.90
2019-04-26T06:48:06.127Z,61.40
2019-04-26T06:50:41.439Z,60.20
2019-04-26T06:53:29.467Z,59.60
2019-04-26T06:56:18.019Z,57.40
2019-04-26T06:59:01.161Z,54.40
2019-04-26T07:01:40.299Z,53.30
2019-04-26T07:04:10.393Z,53.90
2019-04-26T07:06:59.504Z,53.60
2019-04-26T07:09:46.672Z,52.40
2019-04-26T07:12:30.521Z,51.70
2019-04-26T07:15:12.437Z,51.40
2019-04-26T07:18:04.422Z,51.90
2019-04-26T07:20:36.695Z,53.10
2019-04-26T07:23:26.562Z,51.20
2019-04-26T07:26:14.101Z,48.20
2019-04-26T07:28:53.354Z,46.10
2019-04-26T07:31:29.173Z,45.60
2019-04-26T07:34:35.893Z,46.50
2019-04-26T07:37:22.517Z,45.80
2019-04-26T07:43:08.163Z,44.20
2019-04-26T07:45:56.424Z,43.70
2019-04-26T07:48:32.130Z,43.00
2019-04-26T07:51:21.955Z,42.50
2019-04-26T07:54:08.951Z,42.90
2019-04-26T07:56:55.848Z,39.70
2019-04-26T07:59:45.164Z,40.00
2019-04-26T08:02:26.032Z,40.00
2019-04-26T08:05:00.133Z,40.40
2019-04-26T08:07:33.342Z,36.50
2019-04-26T08:10:09.950Z,36.80
2019-04-26T08:12:40.511Z,35.90
2019-04-26T08:15:13.465Z,33.50
2019-04-26T08:17:51.448Z,31.60
2019-04-26T08:20:32.019Z,32.40
2019-04-26T08:23:02.655Z,33.20
2019-04-26T08:25:32.723Z,32.50
2019-04-26T08:28:01.833Z,33.50
2019-04-26T08:30:30.878Z,34.20
2019-04-26T08:33:02.094Z,33.70
2019-04-26T08:35:31.901Z,33.00
2019-04-26T08:38:01.978Z,38.90
2019-04-26T08:40:31.290Z,43.40
2019-04-26T08:43:11.960Z,47.80
2019-04-26T08:46:02.933Z,50.20
2019-04-26T08:48:29.248Z,52.60
2019-04-26T08:51:03.282Z,52.50
2019-04-26T08:53:32.971Z,51.00
2019-04-26T08:56:00.775Z,48.00
2019-04-26T08:58:30.739Z,44.80
2019-04-26T09:01:05.641Z,41.70
2019-04-26T09:03:55.662Z,38.90
2019-04-26T09:06:41.952Z,35.00
2019-04-26T09:09:14.400Z,31.20
2019-04-26T09:11:40.926Z,30.10
2019-04-26T09:14:07.797Z,29.60
2019-04-26T09:16:34.274Z,31.10
2019-04-26T09:19:01.319Z,31.00
2019-04-26T09:21:29.496Z,29.80
2019-04-26T09:24:12.886Z,31.70
2019-04-26T09:26:42.395Z,31.50
2019-04-26T09:29:26.297Z,31.00
2019-04-26T09:31:54.597Z,33.70
2019-04-26T09:34:23.599Z,33.50
2019-04-26T09:36:50.095Z,34.70
2019-04-26T09:39:17.171Z,35.70
2019-04-26T09:41:43.541Z,35.00
2019-04-26T09:44:11.947Z,34.10
2019-04-26T09:46:52.899Z,31.70
2019-04-26T09:49:19.413Z,30.60
2019-04-26T09:51:45.756Z,29.30
2019-04-26T09:54:12.041Z,26.90
2019-04-26T09:56:38.263Z,26.60
2019-04-26T09:59:05.622Z,26.10
2019-04-26T10:01:33.213Z,24.10
2019-04-26T10:03:59.472Z,23.10
2019-04-26T10:06:26.236Z,24.90
2019-04-26T10:08:54.123Z,23.70
2019-04-26T10:11:22.296Z,23.90
2019-04-26T10:13:50.438Z,23.70
2019-04-26T10:16:18.613Z,25.20
2019-04-26T10:18:46.755Z,26.40
2019-04-26T10:21:13.040Z,27.50
2019-04-26T10:23:39.279Z,28.70
2019-04-26T10:26:06.236Z,26.50
2019-04-26T10:28:32.500Z,26.50
2019-04-26T10:30:58.869Z,27.10
2019-04-26T10:33:25.236Z,27.50
2019-04-26T10:35:52.634Z,25.70
2019-04-26T10:38:23.698Z,25.30
2019-04-26T10:40:47.887Z,26.00
2019-04-26T10:43:14.252Z,25.60
2019-04-26T10:45:40.695Z,24.80
2019-04-26T10:48:09.724Z,24.40
2019-04-26T10:50:34.999Z,22.80
2019-04-26T10:53:18.319Z,26.80
2019-04-26T10:56:02.980Z,27.10
2019-04-26T10:58:36.332Z,27.50
2019-04-26T11:01:06.635Z,29.00
2019-04-26T11:03:34.990Z,32.50
2019-04-26T11:06:00.977Z,33.50
2019-04-26T11:08:28.148Z,32.20
2019-04-26T11:10:54.454Z,33.40
2019-04-26T11:13:20.698Z,33.30
2019-04-26T11:15:47.165Z,32.60
2019-04-26T11:18:13.513Z,33.40
2019-04-26T11:20:41.521Z,30.10
2019-04-26T11:23:08.168Z,26.90
2019-04-26T11:25:35.960Z,27.40
2019-04-26T11:28:03.401Z,27.10
2019-04-26T11:30:29.651Z,29.30
2019-04-26T11:32:55.908Z,27.60
2019-04-26T11:35:22.200Z,26.20
2019-04-26T11:37:50.727Z,26.90
2019-04-26T11:40:16.576Z,24.70
2019-04-26T11:42:45.645Z,23.20
2019-04-26T11:45:14.768Z,21.30
2019-04-26T11:47:54.364Z,24.60
2019-04-26T11:50:12.396Z,26.50
2019-04-26T11:52:37.425Z,29.60
2019-04-26T11:55:05.188Z,27.80
2019-04-26T11:57:31.438Z,26.60
2019-04-26T11:59:57.709Z,30.80
2019-04-26T12:02:24.112Z,30.50
2019-04-26T12:04:55.323Z,28.40
2019-04-26T12:07:23.583Z,25.70
2019-04-26T12:09:57.951Z,27.70
2019-04-26T12:12:25.300Z,29.60
2019-04-26T12:14:51.573Z,32.50
2019-04-26T12:17:17.837Z,31.60
2019-04-26T12:19:44.080Z,29.60
2019-04-26T12:22:10.448Z,26.80
2019-04-26T12:24:38.605Z,26.60
2019-04-26T12:27:05.020Z,28.10
2019-04-26T12:29:31.320Z,30.00
2019-04-26T12:31:57.701Z,29.50
2019-04-26T12:34:23.926Z,27.80
2019-04-26T12:36:50.208Z,26.70
2019-04-26T12:39:17.240Z,26.40
2019-04-26T12:41:43.672Z,27.30
2019-04-26T12:44:10.455Z,28.40
2019-04-26T12:46:44.257Z,30.60
2019-04-26T12:49:10.572Z,32.20
2019-04-26T12:51:38.316Z,32.50
2019-04-26T12:54:08.261Z,32.40
2019-04-26T12:56:32.855Z,33.00
2019-04-26T12:58:59.154Z,32.10
2019-04-26T13:01:25.524Z,33.00
2019-04-26T13:04:04.879Z,33.10
2019-04-26T13:06:33.945Z,33.90
2019-04-26T13:09:00.193Z,33.20
2019-04-26T13:11:28.415Z,33.40
2019-04-26T13:13:59.434Z,34.00
2019-04-26T13:16:30.604Z,35.20
2019-04-26T13:18:56.838Z,35.60
2019-04-26T13:21:24.380Z,33.00
2019-04-26T13:23:50.612Z,28.80
2019-04-26T13:26:16.875Z,26.80
2019-04-26T13:28:44.048Z,27.40
2019-04-26T13:31:10.367Z,29.20
2019-04-26T13:33:36.745Z,31.20
2019-04-26T13:36:03.478Z,31.90
2019-04-26T13:38:30.072Z,33.10
2019-04-26T13:40:59.689Z,32.90
2019-04-26T13:43:27.117Z,34.60
2019-04-26T13:45:54.440Z,34.40
2019-04-26T13:48:31.741Z,36.10
2019-04-26T13:51:01.280Z,35.90
2019-04-26T13:53:28.062Z,36.00
2019-04-26T13:55:54.340Z,36.80
2019-04-26T13:58:25.310Z,36.90
2019-04-26T14:00:48.750Z,37.20
2019-04-26T14:03:15.079Z,38.10
2019-04-26T14:05:41.335Z,37.20
2019-04-26T14:08:07.760Z,38.60
2019-04-26T14:10:34.035Z,38.50
2019-04-26T14:13:00.571Z,38.60
2019-04-26T14:15:26.836Z,39.10
2019-04-26T14:17:53.192Z,38.40
2019-04-26T14:20:23.438Z,38.60
2019-04-26T14:22:49.500Z,37.80
2019-04-26T14:25:17.643Z,39.00
2019-04-26T14:27:50.029Z,38.10
2019-04-26T14:30:14.854Z,34.80
2019-04-26T14:32:42.704Z,32.20
2019-04-26T14:35:11.544Z,32.90
2019-04-26T14:37:37.673Z,35.00
2019-04-26T14:40:16.710Z,35.00
2019-04-26T14:42:38.160Z,35.80
2019-04-26T14:45:06.129Z,37.00
2019-04-26T14:47:31.998Z,36.20
2019-04-26T14:49:59.327Z,36.90
2019-04-26T14:52:27.787Z,36.20
2019-04-26T14:54:54.036Z,36.20
2019-04-26T14:57:28.423Z,36.40
2019-04-26T14:59:50.255Z,35.70
2019-04-26T15:02:35.112Z,36.60
2019-04-26T15:05:09.198Z,36.90
2019-04-26T15:07:35.041Z,36.70
2019-04-26T15:10:02.840Z,37.20
2019-04-26T15:12:29.447Z,37.50
2019-04-26T15:14:56.790Z,37.90
2019-04-26T15:17:26.451Z,37.30
2019-04-26T15:19:51.628Z,37.00
2019-04-26T15:22:17.913Z,36.50
2019-04-26T15:24:44.149Z,36.20
2019-04-26T15:27:10.420Z,36.80
2019-04-26T15:29:36.731Z,36.60
2019-04-26T15:32:05.225Z,36.90
2019-04-26T15:34:31.251Z,36.30
2019-04-26T15:36:57.495Z,35.00
2019-04-26T15:39:33.018Z,34.30
2019-04-26T15:42:03.096Z,33.50
2019-04-26T15:44:43.457Z,34.30
2019-04-26T15:47:17.631Z,33.10
2019-04-26T15:49:48.812Z,32.90
2019-04-26T15:52:15.055Z,34.10
2019-04-26T15:54:42.477Z,34.00
2019-04-26T15:57:09.191Z,33.80
2019-04-26T15:59:35.435Z,34.50
2019-04-26T16:02:02.569Z,34.10
2019-04-26T16:04:28.903Z,35.00
2019-04-26T16:06:55.171Z,35.90
2019-04-26T16:09:23.026Z,36.70
2019-04-26T16:11:50.555Z,37.10
2019-04-26T16:14:16.858Z,37.70
2019-04-26T16:16:43.106Z,37.30
2019-04-26T16:19:09.395Z,37.40
2019-04-26T16:21:35.599Z,37.60
2019-04-26T16:24:02.810Z,37.70
2019-04-26T16:26:29.111Z,37.90
2019-04-26T16:29:03.488Z,37.90
2019-04-26T16:31:32.231Z,38.70
2019-04-26T16:34:16.808Z,38.80
2019-04-26T16:36:45.248Z,38.40
2019-04-26T16:39:13.113Z,38.20
2019-04-26T16:41:39.787Z,38.60
2019-04-26T16:44:06.143Z,38.90
2019-04-26T16:46:33.326Z,38.90
2019-04-26T16:49:02.408Z,38.60
2019-04-26T16:51:28.020Z,38.70
2019-04-26T16:54:06.813Z,38.90
2019-04-26T16:56:26.606Z,39.30
2019-04-26T16:58:54.748Z,39.80
2019-04-26T17:01:20.015Z,40.30
2019-04-26T17:03:48.198Z,39.80
2019-04-26T17:06:14.582Z,39.90
2019-04-26T17:08:49.160Z,40.00
2019-04-26T17:11:08.935Z,39.60
2019-04-26T17:13:48.225Z,39.90
2019-04-26T17:16:03.364Z,39.90
2019-04-26T17:18:29.601Z,39.30
2019-04-26T17:20:55.841Z,39.80
2019-04-26T17:23:30.315Z,39.60
2019-04-26T17:26:13.331Z,39.80
2019-04-26T17:28:39.986Z,40.30
2019-04-26T17:31:06.354Z,40.50
2019-04-26T17:33:32.831Z,40.90
2019-04-26T17:35:59.072Z,41.60
2019-04-26T17:38:25.556Z,42.00
2019-04-26T17:40:51.779Z,42.60
2019-04-26T17:43:18.017Z,43.20
2019-04-26T17:45:44.309Z,43.50
2019-04-26T17:48:11.591Z,44.20
2019-04-26T17:50:38.972Z,45.20
2019-04-26T17:53:10.667Z,45.30
2019-04-26T17:55:35.061Z,45.10
2019-04-26T17:58:11.828Z,44.60
2019-04-26T18:00:45.600Z,44.50
2019-04-26T18:03:03.545Z,44.30
2019-04-26T18:05:41.936Z,44.60
2019-04-26T18:07:59.648Z,45.00
2019-04-26T18:10:26.178Z,45.40
2019-04-26T18:12:52.414Z,45.80
2019-04-26T18:15:19.518Z,46.30
2019-04-26T18:18:04.944Z,46.50
2019-04-26T18:20:43.064Z,46.90
2019-04-26T18:23:15.346Z,47.20
2019-04-26T18:25:41.346Z,47.30
2019-04-26T18:28:08.740Z,47.70
2019-04-26T18:30:36.332Z,47.50
2019-04-26T18:33:02.967Z,47.70
2019-04-26T18:35:29.432Z,47.90
2019-04-26T18:37:55.688Z,48.40
2019-04-26T18:40:23.097Z,48.80
2019-04-26T18:42:49.898Z,49.10
2019-04-26T18:45:21.410Z,49.20
2019-04-26T18:47:45.320Z,49.60
2019-04-26T18:50:14.076Z,50.20
2019-04-26T18:52:42.215Z,50.30
2019-04-26T18:55:16.459Z,50.10
2019-04-26T18:57:43.067Z,50.30
2019-04-26T19:00:11.323Z,50.60
2019-04-26T19:02:37.550Z,51.50
2019-04-26T19:05:05.223Z,52.80
2019-04-26T19:07:32.669Z,54.20
2019-04-26T19:10:04.667Z,55.00
2019-04-26T19:12:28.727Z,54.90
2019-04-26T19:15:07.559Z,55.60
2019-04-26T19:17:35.819Z,56.00
2019-04-26T19:20:12.502Z,56.70
2019-04-26T19:22:41.550Z,56.70
2019-04-26T19:25:18.933Z,57.90
2019-04-26T19:27:47.299Z,57.70
2019-04-26T19:30:09.069Z,58.00
2019-04-26T19:32:35.377Z,58.80
2019-04-26T19:35:07.096Z,59.30
2019-04-26T19:37:36.770Z,60.00
2019-04-26T19:40:02.864Z,60.60
2019-04-26T19:42:30.836Z,60.10
2019-04-26T19:45:11.900Z,61.10
2019-04-26T19:47:29.592Z,61.60
2019-04-26T19:50:09.570Z,61.80
2019-04-26T19:52:53.527Z,63.30
2019-04-26T19:55:27.570Z,64.10
2019-04-26T19:58:04.775Z,64.10
2019-04-26T20:00:32.202Z,63.20
2019-04-26T20:02:59.150Z,63.20
2019-04-26T20:05:25.374Z,63.10
2019-04-26T20:07:51.964Z,63.00
2019-04-26T20:10:18.439Z,62.70
2019-04-26T20:12:44.698Z,62.60
2019-04-26T20:15:24.919Z,62.70
2019-04-26T20:17:39.249Z,62.80
2019-04-26T20:20:16.789Z,63.60
2019-04-26T20:22:33.496Z,63.90
2019-04-26T20:24:59.991Z,62.10
2019-04-26T20:27:27.871Z,62.10
2019-04-26T20:29:54.423Z,61.20
2019-04-26T20:32:23.925Z,60.30
2019-04-26T20:34:52.192Z,60.70
2019-04-26T20:37:22.866Z,61.10
2019-04-26T20:39:46.512Z,61.00
2019-04-26T20:42:12.882Z,60.70
2019-04-26T20:44:50.447Z,61.20
2019-04-26T20:47:07.557Z,61.90
2019-04-26T20:49:47.192Z,61.90
2019-04-26T20:52:04.143Z,63.20
2019-04-26T20:54:31.581Z,63.80
2019-04-26T20:56:58.122Z,64.60
2019-04-26T20:59:24.780Z,66.40
2019-04-26T21:02:03.011Z,67.90
2019-04-26T21:04:35.070Z,68.30
2019-04-26T21:06:47.551Z,68.80
2019-04-26T21:09:14.682Z,68.90
2019-04-26T21:11:41.321Z,69.60
2019-04-26T21:14:08.689Z,70.30
2019-04-26T21:16:35.265Z,70.70
2019-04-26T21:19:01.913Z,70.20
2019-04-26T21:21:28.212Z,69.90
2019-04-26T21:23:54.825Z,69.50
2019-04-26T21:26:29.686Z,70.50
2019-04-26T21:29:20.420Z,71.10
2019-04-26T21:31:59.808Z,70.50
2019-04-26T21:34:29.166Z,69.40
2019-04-26T21:37:17.216Z,69.70
2019-04-26T21:39:49.850Z,69.80
2019-04-26T21:42:17.204Z,69.50
2019-04-26T21:44:51.137Z,69.70
2019-04-26T21:47:13.518Z,69.70
2019-04-26T21:49:39.998Z,69.30
2019-04-26T21:52:06.497Z,69.10
2019-04-26T21:54:33.028Z,70.00
2019-04-26T21:56:59.477Z,70.90
2019-04-26T21:59:26.027Z,70.50
2019-04-26T22:01:58.845Z,70.00
2019-04-26T22:04:20.953Z,70.40
2019-04-26T22:06:47.604Z,70.60
2019-04-26T22:09:36.714Z,70.70
2019-04-26T22:12:03.665Z,71.20
2019-04-26T22:14:31.880Z,71.90
2019-04-26T22:17:01.988Z,72.50
2019-04-26T22:19:32.557Z,72.40
2019-04-26T22:22:10.395Z,72.10
2019-04-26T22:24:41.199Z,72.90
2019-04-26T22:27:07.435Z,73.80
2019-04-26T22:29:33.870Z,74.70
2019-04-26T22:32:00.333Z,74.80
2019-04-26T22:34:26.904Z,74.30
2019-04-26T22:36:53.682Z,74.90
2019-04-26T22:39:20.193Z,75.30
2019-04-26T22:41:46.784Z,75.50
2019-04-26T22:44:15.324Z,76.30
2019-04-26T22:46:47.213Z,76.50
2019-04-26T22:49:13.366Z,77.00
2019-04-26T22:51:39.924Z,77.30
2019-04-26T22:54:06.582Z,78.00
2019-04-26T22:56:37.125Z,79.40
2019-04-26T22:59:04.783Z,79.70
2019-04-26T23:01:30.644Z,80.10
2019-04-26T23:03:57.181Z,79.50
2019-04-26T23:06:23.852Z,78.80
2019-04-26T23:08:50.456Z,78.00
2019-04-26T23:11:17.171Z,77.70
2019-04-26T23:14:03.888Z,77.40
2019-04-26T23:16:40.490Z,77.80
2019-04-26T23:19:15.334Z,78.80
2019-04-26T23:21:45.491Z,78.60
2019-04-26T23:24:11.491Z,78.60
2019-04-26T23:26:41.578Z,78.20
2019-04-26T23:29:08.580Z,78.30
2019-04-26T23:31:37.510Z,78.70
2019-04-26T23:34:03.578Z,78.90
2019-04-26T23:36:30.184Z,79.10
2019-04-26T23:38:56.901Z,78.90
2019-04-26T23:41:23.715Z,78.20
2019-04-26T23:43:50.623Z,78.70
2019-04-26T23:46:18.908Z,78.80
2019-04-26T23:48:48.829Z,78.50
2019-04-26T23:51:13.312Z,78.70
2019-04-26T23:53:39.920Z,79.00
2019-04-26T23:56:06.789Z,79.00
2019-04-26T23:58:33.194Z,79.70
